sensor_id;sensor_type;location;lat;lon;timestamp;P1;durP1;ratioP1;P2;durP2;ratioP2
11039;SDS011;5573;49.592;8.662;2023-05-10T00:01:33;422.25;;;397.05;;
11039;SDS011;5573;49.592;8.662;2023-05-10T00:04:22;383.20;;;361.30;;
11039;SDS011;5573;49.592;8.662;2023-05-10T00:07:15;387.08;;;364.33;;
11039;SDS011;5573;49.592;8.662;2023-05-10T00:10:04;387.13;;;364.48;;
11039;SDS011;5573;49.592;8.662;2023-05-10T00:12:53;402.80;;;379.25;;
11039;SDS011;5573;49.592;8.662;2023-05-10T00:15:41;385.98;;;363.77;;
11039;SDS011;5573;49.592;8.662;2023-05-10T00:18:29;403.85;;;380.67;;
11039;SDS011;5573;49.592;8.662;2023-05-10T00:21:17;407.45;;;383.38;;
11039;SDS011;5573;49.592;8.662;2023-05-10T00:24:06;389.13;;;366.85;;
11039;SDS011;5573;49.592;8.662;2023-05-10T00:26:54;407.60;;;383.48;;
11039;SDS011;5573;49.592;8.662;2023-05-10T00:29:43;415.67;;;390.95;;
11039;SDS011;5573;49.592;8.662;2023-05-10T00:32:31;411.33;;;386.35;;
11039;SDS011;5573;49.592;8.662;2023-05-10T00:35:19;417.38;;;393.00;;
11039;SDS011;5573;49.592;8.662;2023-05-10T00:38:08;394.83;;;371.63;;
11039;SDS011;5573;49.592;8.662;2023-05-10T00:40:57;421.17;;;396.52;;
11039;SDS011;5573;49.592;8.662;2023-05-10T00:43:49;393.98;;;370.95;;
11039;SDS011;5573;49.592;8.662;2023-05-10T00:46:37;383.67;;;360.88;;
11039;SDS011;5573;49.592;8.662;2023-05-10T00:49:25;412.10;;;388.15;;
11039;SDS011;5573;49.592;8.662;2023-05-10T00:52:14;393.42;;;370.60;;
11039;SDS011;5573;49.592;8.662;2023-05-10T00:55:02;396.98;;;373.30;;
11039;SDS011;5573;49.592;8.662;2023-05-10T00:57:53;398.67;;;375.23;;
11039;SDS011;5573;49.592;8.662;2023-05-10T01:00:41;412.77;;;388.23;;
11039;SDS011;5573;49.592;8.662;2023-05-10T01:03:31;400.67;;;377.30;;
11039;SDS011;5573;49.592;8.662;2023-05-10T01:06:19;405.63;;;381.75;;
11039;SDS011;5573;49.592;8.662;2023-05-10T01:09:08;387.58;;;364.67;;
11039;SDS011;5573;49.592;8.662;2023-05-10T01:11:58;402.00;;;378.23;;
11039;SDS011;5573;49.592;8.662;2023-05-10T01:14:50;405.98;;;382.38;;
11039;SDS011;5573;49.592;8.662;2023-05-10T01:17:39;411.83;;;387.65;;
11039;SDS011;5573;49.592;8.662;2023-05-10T01:20:29;408.67;;;384.27;;
11039;SDS011;5573;49.592;8.662;2023-05-10T01:23:32;411.42;;;387.27;;
11039;SDS011;5573;49.592;8.662;2023-05-10T01:33:44;378.00;;;355.60;;
11039;SDS011;5573;49.592;8.662;2023-05-10T01:36:40;409.48;;;385.85;;
11039;SDS011;5573;49.592;8.662;2023-05-10T01:39:36;391.98;;;368.73;;
11039;SDS011;5573;49.592;8.662;2023-05-10T01:42:33;400.15;;;376.92;;
11039;SDS011;5573;49.592;8.662;2023-05-10T01:45:28;397.08;;;374.33;;
11039;SDS011;5573;49.592;8.662;2023-05-10T01:48:22;423.90;;;399.05;;
11039;SDS011;5573;49.592;8.662;2023-05-10T01:51:13;418.90;;;394.42;;
11039;SDS011;5573;49.592;8.662;2023-05-10T01:54:07;414.40;;;390.95;;
11039;SDS011;5573;49.592;8.662;2023-05-10T01:56:59;407.63;;;383.48;;
11039;SDS011;5573;49.592;8.662;2023-05-10T01:59:50;397.35;;;374.50;;
11039;SDS011;5573;49.592;8.662;2023-05-10T02:02:39;403.75;;;380.45;;
11039;SDS011;5573;49.592;8.662;2023-05-10T02:05:30;405.80;;;381.63;;
11039;SDS011;5573;49.592;8.662;2023-05-10T02:08:22;413.42;;;389.00;;
11039;SDS011;5573;49.592;8.662;2023-05-10T02:11:11;402.90;;;379.27;;
11039;SDS011;5573;49.592;8.662;2023-05-10T02:14:01;404.05;;;380.77;;
11039;SDS011;5573;49.592;8.662;2023-05-10T02:16:50;428.27;;;403.40;;
11039;SDS011;5573;49.592;8.662;2023-05-10T02:19:40;422.60;;;397.35;;
11039;SDS011;5573;49.592;8.662;2023-05-10T02:22:29;409.38;;;384.35;;
11039;SDS011;5573;49.592;8.662;2023-05-10T02:25:20;425.30;;;400.17;;
11039;SDS011;5573;49.592;8.662;2023-05-10T02:28:09;411.20;;;386.92;;
11039;SDS011;5573;49.592;8.662;2023-05-10T02:30:59;403.67;;;379.52;;
11039;SDS011;5573;49.592;8.662;2023-05-10T02:33:48;414.48;;;390.50;;
11039;SDS011;5573;49.592;8.662;2023-05-10T02:36:37;381.55;;;359.58;;
11039;SDS011;5573;49.592;8.662;2023-05-10T02:39:27;397.65;;;374.73;;
11039;SDS011;5573;49.592;8.662;2023-05-10T02:42:18;414.60;;;389.90;;
11039;SDS011;5573;49.592;8.662;2023-05-10T02:45:11;393.95;;;371.27;;
11039;SDS011;5573;49.592;8.662;2023-05-10T02:48:03;396.20;;;372.90;;
11039;SDS011;5573;49.592;8.662;2023-05-10T02:50:52;391.38;;;368.52;;
11039;SDS011;5573;49.592;8.662;2023-05-10T02:53:43;392.08;;;368.95;;
11039;SDS011;5573;49.592;8.662;2023-05-10T02:56:34;388.95;;;366.17;;
11039;SDS011;5573;49.592;8.662;2023-05-10T02:59:29;397.15;;;373.58;;
11039;SDS011;5573;49.592;8.662;2023-05-10T03:02:19;400.65;;;377.10;;
11039;SDS011;5573;49.592;8.662;2023-05-10T03:05:08;377.95;;;355.90;;
11039;SDS011;5573;49.592;8.662;2023-05-10T03:07:56;403.85;;;380.20;;
11039;SDS011;5573;49.592;8.662;2023-05-10T03:10:47;420.35;;;394.90;;
11039;SDS011;5573;49.592;8.662;2023-05-10T03:13:44;381.88;;;360.40;;
11039;SDS011;5573;49.592;8.662;2023-05-10T03:16:44;406.25;;;382.95;;
11039;SDS011;5573;49.592;8.662;2023-05-10T03:19:36;388.23;;;365.45;;
11039;SDS011;5573;49.592;8.662;2023-05-10T03:22:32;391.33;;;368.45;;
11039;SDS011;5573;49.592;8.662;2023-05-10T03:25:24;385.20;;;362.98;;
11039;SDS011;5573;49.592;8.662;2023-05-10T03:28:13;387.88;;;364.98;;
11039;SDS011;5573;49.592;8.662;2023-05-10T03:31:03;386.88;;;364.75;;
11039;SDS011;5573;49.592;8.662;2023-05-10T03:33:55;394.70;;;371.95;;
11039;SDS011;5573;49.592;8.662;2023-05-10T03:36:45;382.77;;;361.27;;
11039;SDS011;5573;49.592;8.662;2023-05-10T03:39:34;392.35;;;369.25;;
11039;SDS011;5573;49.592;8.662;2023-05-10T03:42:24;405.42;;;382.30;;
11039;SDS011;5573;49.592;8.662;2023-05-10T03:45:12;406.42;;;382.73;;
11039;SDS011;5573;49.592;8.662;2023-05-10T03:48:00;407.52;;;383.67;;
11039;SDS011;5573;49.592;8.662;2023-05-10T03:50:50;398.05;;;375.50;;
11039;SDS011;5573;49.592;8.662;2023-05-10T03:53:38;390.85;;;368.42;;
11039;SDS011;5573;49.592;8.662;2023-05-10T03:56:27;370.92;;;349.98;;
11039;SDS011;5573;49.592;8.662;2023-05-10T03:59:15;397.15;;;374.23;;
11039;SDS011;5573;49.592;8.662;2023-05-10T04:02:03;396.27;;;373.08;;
11039;SDS011;5573;49.592;8.662;2023-05-10T04:04:51;393.42;;;370.80;;
11039;SDS011;5573;49.592;8.662;2023-05-10T04:07:41;400.23;;;376.92;;
11039;SDS011;5573;49.592;8.662;2023-05-10T04:10:30;391.98;;;369.40;;
11039;SDS011;5573;49.592;8.662;2023-05-10T04:13:19;377.80;;;355.45;;
11039;SDS011;5573;49.592;8.662;2023-05-10T04:16:07;376.13;;;354.83;;
11039;SDS011;5573;49.592;8.662;2023-05-10T04:18:55;399.58;;;376.25;;
11039;SDS011;5573;49.592;8.662;2023-05-10T04:21:43;374.33;;;353.10;;
11039;SDS011;5573;49.592;8.662;2023-05-10T04:24:34;395.73;;;372.90;;
11039;SDS011;5573;49.592;8.662;2023-05-10T04:27:22;385.42;;;362.90;;
11039;SDS011;5573;49.592;8.662;2023-05-10T04:30:10;379.67;;;357.45;;
11039;SDS011;5573;49.592;8.662;2023-05-10T04:32:58;395.25;;;372.25;;
11039;SDS011;5573;49.592;8.662;2023-05-10T04:35:46;366.83;;;345.30;;
11039;SDS011;5573;49.592;8.662;2023-05-10T04:38:35;383.23;;;360.40;;
11039;SDS011;5573;49.592;8.662;2023-05-10T04:41:24;386.35;;;364.48;;
11039;SDS011;5573;49.592;8.662;2023-05-10T04:44:12;391.20;;;368.60;;
11039;SDS011;5573;49.592;8.662;2023-05-10T04:47:00;385.67;;;363.83;;
11039;SDS011;5573;49.592;8.662;2023-05-10T04:49:50;362.52;;;341.88;;
11039;SDS011;5573;49.592;8.662;2023-05-10T04:52:38;379.80;;;357.75;;
11039;SDS011;5573;49.592;8.662;2023-05-10T04:55:26;384.73;;;362.45;;
11039;SDS011;5573;49.592;8.662;2023-05-10T04:58:15;381.42;;;359.45;;
11039;SDS011;5573;49.592;8.662;2023-05-10T05:01:06;368.13;;;346.95;;
11039;SDS011;5573;49.592;8.662;2023-05-10T05:03:55;361.77;;;341.02;;
11039;SDS011;5573;49.592;8.662;2023-05-10T05:06:43;367.88;;;346.88;;
11039;SDS011;5573;49.592;8.662;2023-05-10T05:09:31;376.55;;;354.75;;
11039;SDS011;5573;49.592;8.662;2023-05-10T05:12:19;358.70;;;338.35;;
11039;SDS011;5573;49.592;8.662;2023-05-10T05:15:09;377.40;;;355.15;;
11039;SDS011;5573;49.592;8.662;2023-05-10T05:17:58;345.05;;;325.38;;
11039;SDS011;5573;49.592;8.662;2023-05-10T05:20:46;356.90;;;336.48;;
11039;SDS011;5573;49.592;8.662;2023-05-10T05:23:34;340.10;;;321.10;;
11039;SDS011;5573;49.592;8.662;2023-05-10T05:26:22;361.48;;;340.63;;
11039;SDS011;5573;49.592;8.662;2023-05-10T05:29:11;366.63;;;345.92;;
11039;SDS011;5573;49.592;8.662;2023-05-10T05:32:00;372.73;;;351.35;;
11039;SDS011;5573;49.592;8.662;2023-05-10T05:34:49;364.15;;;343.50;;
11039;SDS011;5573;49.592;8.662;2023-05-10T05:37:37;347.17;;;327.38;;
11039;SDS011;5573;49.592;8.662;2023-05-10T05:40:25;367.33;;;346.92;;
11039;SDS011;5573;49.592;8.662;2023-05-10T05:43:13;359.40;;;339.42;;
11039;SDS011;5573;49.592;8.662;2023-05-10T05:46:01;388.35;;;366.20;;
11039;SDS011;5573;49.592;8.662;2023-05-10T05:48:51;390.65;;;368.20;;
11039;SDS011;5573;49.592;8.662;2023-05-10T05:51:39;371.67;;;349.95;;
11039;SDS011;5573;49.592;8.662;2023-05-10T05:54:27;373.80;;;352.30;;
11039;SDS011;5573;49.592;8.662;2023-05-10T05:57:16;353.85;;;334.10;;
11039;SDS011;5573;49.592;8.662;2023-05-10T06:00:04;366.35;;;345.73;;
11039;SDS011;5573;49.592;8.662;2023-05-10T06:03:02;351.80;;;332.02;;
11039;SDS011;5573;49.592;8.662;2023-05-10T06:05:52;372.50;;;351.73;;
11039;SDS011;5573;49.592;8.662;2023-05-10T06:08:40;379.05;;;357.58;;
11039;SDS011;5573;49.592;8.662;2023-05-10T06:11:28;374.00;;;353.05;;
11039;SDS011;5573;49.592;8.662;2023-05-10T06:14:19;381.10;;;359.55;;
11039;SDS011;5573;49.592;8.662;2023-05-10T06:17:07;366.65;;;345.95;;
11039;SDS011;5573;49.592;8.662;2023-05-10T06:19:55;371.98;;;350.98;;
11039;SDS011;5573;49.592;8.662;2023-05-10T06:22:45;365.23;;;344.42;;
11039;SDS011;5573;49.592;8.662;2023-05-10T06:25:33;358.40;;;337.92;;
11039;SDS011;5573;49.592;8.662;2023-05-10T06:28:21;373.08;;;352.13;;
11039;SDS011;5573;49.592;8.662;2023-05-10T06:31:09;350.10;;;330.23;;
11039;SDS011;5573;49.592;8.662;2023-05-10T06:33:58;374.77;;;353.45;;
11039;SDS011;5573;49.592;8.662;2023-05-10T06:36:46;360.17;;;339.80;;
11039;SDS011;5573;49.592;8.662;2023-05-10T06:39:36;367.95;;;346.98;;
11039;SDS011;5573;49.592;8.662;2023-05-10T06:42:24;363.63;;;343.23;;
11039;SDS011;5573;49.592;8.662;2023-05-10T06:45:13;362.15;;;341.63;;
11039;SDS011;5573;49.592;8.662;2023-05-10T06:48:03;380.70;;;358.98;;
11039;SDS011;5573;49.592;8.662;2023-05-10T06:50:51;382.73;;;360.83;;
11039;SDS011;5573;49.592;8.662;2023-05-10T06:53:39;389.98;;;367.38;;
11039;SDS011;5573;49.592;8.662;2023-05-10T06:56:28;371.23;;;350.05;;
11039;SDS011;5573;49.592;8.662;2023-05-10T06:59:16;362.58;;;342.23;;
11039;SDS011;5573;49.592;8.662;2023-05-10T07:02:06;361.30;;;341.15;;
11039;SDS011;5573;49.592;8.662;2023-05-10T07:04:54;363.33;;;342.65;;
11039;SDS011;5573;49.592;8.662;2023-05-10T07:07:45;340.73;;;321.55;;
11039;SDS011;5573;49.592;8.662;2023-05-10T07:10:34;337.95;;;318.67;;
11039;SDS011;5573;49.592;8.662;2023-05-10T07:13:23;360.50;;;340.02;;
11039;SDS011;5573;49.592;8.662;2023-05-10T07:16:11;364.92;;;344.05;;
11039;SDS011;5573;49.592;8.662;2023-05-10T07:18:59;371.92;;;350.67;;
11039;SDS011;5573;49.592;8.662;2023-05-10T07:21:49;369.52;;;349.40;;
11039;SDS011;5573;49.592;8.662;2023-05-10T07:24:37;359.02;;;339.05;;
11039;SDS011;5573;49.592;8.662;2023-05-10T07:27:25;381.25;;;359.45;;
11039;SDS011;5573;49.592;8.662;2023-05-10T07:30:14;370.30;;;349.67;;
11039;SDS011;5573;49.592;8.662;2023-05-10T07:33:02;357.83;;;338.08;;
11039;SDS011;5573;49.592;8.662;2023-05-10T07:35:51;357.90;;;337.73;;
11039;SDS011;5573;49.592;8.662;2023-05-10T07:38:39;356.73;;;336.35;;
11039;SDS011;5573;49.592;8.662;2023-05-10T07:41:27;371.98;;;351.15;;
11039;SDS011;5573;49.592;8.662;2023-05-10T07:44:15;390.30;;;367.85;;
11039;SDS011;5573;49.592;8.662;2023-05-10T07:47:06;377.17;;;356.10;;
11039;SDS011;5573;49.592;8.662;2023-05-10T07:49:54;356.95;;;336.63;;
11039;SDS011;5573;49.592;8.662;2023-05-10T07:52:42;367.42;;;347.05;;
11039;SDS011;5573;49.592;8.662;2023-05-10T07:55:31;372.70;;;351.85;;
11039;SDS011;5573;49.592;8.662;2023-05-10T07:58:19;392.88;;;370.00;;
11039;SDS011;5573;49.592;8.662;2023-05-10T08:01:07;400.77;;;377.92;;
11039;SDS011;5573;49.592;8.662;2023-05-10T08:03:56;402.75;;;379.55;;
11039;SDS011;5573;49.592;8.662;2023-05-10T08:06:46;403.85;;;380.42;;
11039;SDS011;5573;49.592;8.662;2023-05-10T08:09:56;389.77;;;368.40;;
11039;SDS011;5573;49.592;8.662;2023-05-10T08:12:44;394.63;;;372.77;;
11039;SDS011;5573;49.592;8.662;2023-05-10T08:15:34;396.10;;;373.98;;
11039;SDS011;5573;49.592;8.662;2023-05-10T08:18:22;396.10;;;373.30;;
11039;SDS011;5573;49.592;8.662;2023-05-10T08:21:11;399.02;;;376.67;;
11039;SDS011;5573;49.592;8.662;2023-05-10T08:24:00;385.27;;;363.30;;
11039;SDS011;5573;49.592;8.662;2023-05-10T08:26:48;382.88;;;361.75;;
11039;SDS011;5573;49.592;8.662;2023-05-10T08:29:37;383.42;;;362.08;;
11039;SDS011;5573;49.592;8.662;2023-05-10T08:32:36;390.90;;;368.70;;
11039;SDS011;5573;49.592;8.662;2023-05-10T08:35:24;425.02;;;400.92;;
11039;SDS011;5573;49.592;8.662;2023-05-10T08:38:14;429.45;;;405.17;;
11039;SDS011;5573;49.592;8.662;2023-05-10T08:41:02;400.67;;;377.00;;
11039;SDS011;5573;49.592;8.662;2023-05-10T08:43:52;422.10;;;398.65;;
11039;SDS011;5573;49.592;8.662;2023-05-10T08:46:41;390.40;;;368.27;;
11039;SDS011;5573;49.592;8.662;2023-05-10T08:49:34;410.70;;;387.80;;
11039;SDS011;5573;49.592;8.662;2023-05-10T08:52:24;408.80;;;385.67;;
11039;SDS011;5573;49.592;8.662;2023-05-10T08:55:15;397.75;;;375.50;;
11039;SDS011;5573;49.592;8.662;2023-05-10T08:58:04;407.38;;;384.75;;
11039;SDS011;5573;49.592;8.662;2023-05-10T09:00:53;411.65;;;388.88;;
11039;SDS011;5573;49.592;8.662;2023-05-10T09:03:41;387.63;;;366.02;;
11039;SDS011;5573;49.592;8.662;2023-05-10T09:06:30;362.95;;;342.83;;
11039;SDS011;5573;49.592;8.662;2023-05-10T09:09:19;399.83;;;377.20;;
11039;SDS011;5573;49.592;8.662;2023-05-10T09:12:09;402.92;;;380.88;;
11039;SDS011;5573;49.592;8.662;2023-05-10T09:14:59;398.55;;;375.85;;
11039;SDS011;5573;49.592;8.662;2023-05-10T09:17:47;417.27;;;394.33;;
11039;SDS011;5573;49.592;8.662;2023-05-10T09:20:37;417.42;;;394.13;;
11039;SDS011;5573;49.592;8.662;2023-05-10T09:23:26;409.40;;;386.50;;
11039;SDS011;5573;49.592;8.662;2023-05-10T09:26:21;419.67;;;396.60;;
11039;SDS011;5573;49.592;8.662;2023-05-10T09:29:11;426.75;;;403.58;;
11039;SDS011;5573;49.592;8.662;2023-05-10T09:32:03;435.60;;;411.48;;
11039;SDS011;5573;49.592;8.662;2023-05-10T09:34:51;395.75;;;373.80;;
11039;SDS011;5573;49.592;8.662;2023-05-10T09:37:39;401.45;;;378.35;;
11039;SDS011;5573;49.592;8.662;2023-05-10T09:40:29;401.15;;;379.02;;
11039;SDS011;5573;49.592;8.662;2023-05-10T09:43:18;376.10;;;355.05;;
11039;SDS011;5573;49.592;8.662;2023-05-10T09:46:09;390.15;;;367.88;;
11039;SDS011;5573;49.592;8.662;2023-05-10T09:48:58;405.85;;;383.45;;
11039;SDS011;5573;49.592;8.662;2023-05-10T09:51:46;408.67;;;385.70;;
11039;SDS011;5573;49.592;8.662;2023-05-10T09:54:34;418.30;;;394.48;;
11039;SDS011;5573;49.592;8.662;2023-05-10T09:57:23;442.75;;;417.45;;
11039;SDS011;5573;49.592;8.662;2023-05-10T10:00:16;415.45;;;391.60;;
11039;SDS011;5573;49.592;8.662;2023-05-10T10:03:11;406.63;;;383.42;;
11039;SDS011;5573;49.592;8.662;2023-05-10T10:06:00;380.17;;;359.27;;
11039;SDS011;5573;49.592;8.662;2023-05-10T10:08:49;403.00;;;380.40;;
11039;SDS011;5573;49.592;8.662;2023-05-10T10:11:39;430.23;;;405.92;;
11039;SDS011;5573;49.592;8.662;2023-05-10T10:14:28;413.25;;;389.92;;
11039;SDS011;5573;49.592;8.662;2023-05-10T10:17:16;408.13;;;384.95;;
11039;SDS011;5573;49.592;8.662;2023-05-10T10:20:07;391.83;;;369.77;;
11039;SDS011;5573;49.592;8.662;2023-05-10T10:22:58;405.58;;;382.70;;
11039;SDS011;5573;49.592;8.662;2023-05-10T10:25:46;385.63;;;363.63;;
11039;SDS011;5573;49.592;8.662;2023-05-10T10:28:36;418.27;;;395.15;;
11039;SDS011;5573;49.592;8.662;2023-05-10T10:31:32;419.88;;;395.80;;
11039;SDS011;5573;49.592;8.662;2023-05-10T10:34:26;416.80;;;393.13;;
11039;SDS011;5573;49.592;8.662;2023-05-10T10:37:17;424.45;;;400.35;;
11039;SDS011;5573;49.592;8.662;2023-05-10T10:40:19;393.67;;;371.95;;
11039;SDS011;5573;49.592;8.662;2023-05-10T10:43:23;385.45;;;363.75;;
11039;SDS011;5573;49.592;8.662;2023-05-10T10:46:12;410.85;;;388.00;;
11039;SDS011;5573;49.592;8.662;2023-05-10T10:49:08;397.67;;;375.52;;
11039;SDS011;5573;49.592;8.662;2023-05-10T10:52:13;398.77;;;376.48;;
11039;SDS011;5573;49.592;8.662;2023-05-10T10:55:04;393.63;;;371.65;;
11039;SDS011;5573;49.592;8.662;2023-05-10T10:57:55;408.08;;;384.85;;
11039;SDS011;5573;49.592;8.662;2023-05-10T11:00:49;405.65;;;382.83;;
11039;SDS011;5573;49.592;8.662;2023-05-10T11:03:37;369.48;;;349.25;;
11039;SDS011;5573;49.592;8.662;2023-05-10T11:06:28;397.98;;;376.48;;
11039;SDS011;5573;49.592;8.662;2023-05-10T11:09:18;409.85;;;387.08;;
11039;SDS011;5573;49.592;8.662;2023-05-10T11:12:09;414.08;;;390.98;;
11039;SDS011;5573;49.592;8.662;2023-05-10T11:14:57;410.73;;;388.05;;
11039;SDS011;5573;49.592;8.662;2023-05-10T11:17:45;395.52;;;374.05;;
11039;SDS011;5573;49.592;8.662;2023-05-10T11:20:38;359.33;;;339.40;;
11039;SDS011;5573;49.592;8.662;2023-05-10T11:23:30;338.52;;;320.17;;
11039;SDS011;5573;49.592;8.662;2023-05-10T11:26:19;338.40;;;320.00;;
11039;SDS011;5573;49.592;8.662;2023-05-10T11:29:11;362.10;;;342.70;;
11039;SDS011;5573;49.592;8.662;2023-05-10T11:32:00;336.58;;;318.48;;
11039;SDS011;5573;49.592;8.662;2023-05-10T11:34:49;345.05;;;326.63;;
11039;SDS011;5573;49.592;8.662;2023-05-10T11:37:38;343.85;;;325.25;;
11039;SDS011;5573;49.592;8.662;2023-05-10T11:40:28;355.00;;;335.92;;
11039;SDS011;5573;49.592;8.662;2023-05-10T11:43:16;331.58;;;313.35;;
11039;SDS011;5573;49.592;8.662;2023-05-10T11:46:05;346.67;;;327.75;;
11039;SDS011;5573;49.592;8.662;2023-05-10T11:48:55;350.33;;;331.17;;
11039;SDS011;5573;49.592;8.662;2023-05-10T11:51:47;343.42;;;324.40;;
11039;SDS011;5573;49.592;8.662;2023-05-10T11:54:35;350.27;;;331.10;;
11039;SDS011;5573;49.592;8.662;2023-05-10T11:57:25;347.58;;;328.33;;
11039;SDS011;5573;49.592;8.662;2023-05-10T12:00:14;340.88;;;321.77;;
11039;SDS011;5573;49.592;8.662;2023-05-10T12:03:05;343.92;;;325.25;;
11039;SDS011;5573;49.592;8.662;2023-05-10T12:05:54;346.77;;;327.85;;
11039;SDS011;5573;49.592;8.662;2023-05-10T12:08:44;348.08;;;328.40;;
11039;SDS011;5573;49.592;8.662;2023-05-10T12:11:35;341.60;;;323.13;;
11039;SDS011;5573;49.592;8.662;2023-05-10T12:14:26;355.50;;;335.67;;
11039;SDS011;5573;49.592;8.662;2023-05-10T12:17:14;342.05;;;323.65;;
11039;SDS011;5573;49.592;8.662;2023-05-10T12:20:19;345.40;;;326.60;;
11039;SDS011;5573;49.592;8.662;2023-05-10T12:23:09;334.27;;;315.80;;
11039;SDS011;5573;49.592;8.662;2023-05-10T12:26:01;321.65;;;304.05;;
11039;SDS011;5573;49.592;8.662;2023-05-10T12:28:49;297.63;;;281.33;;
11039;SDS011;5573;49.592;8.662;2023-05-10T12:31:48;301.85;;;285.63;;
11039;SDS011;5573;49.592;8.662;2023-05-10T12:34:37;258.92;;;244.93;;
11039;SDS011;5573;49.592;8.662;2023-05-10T12:37:28;275.45;;;260.90;;
11039;SDS011;5573;49.592;8.662;2023-05-10T12:40:16;269.40;;;255.05;;
11039;SDS011;5573;49.592;8.662;2023-05-10T12:43:05;277.50;;;262.80;;
11039;SDS011;5573;49.592;8.662;2023-05-10T12:45:53;281.17;;;266.25;;
11039;SDS011;5573;49.592;8.662;2023-05-10T12:48:41;302.48;;;286.25;;
11039;SDS011;5573;49.592;8.662;2023-05-10T12:51:31;277.20;;;262.27;;
11039;SDS011;5573;49.592;8.662;2023-05-10T12:54:20;305.33;;;288.85;;
11039;SDS011;5573;49.592;8.662;2023-05-10T12:57:08;308.63;;;292.05;;
11039;SDS011;5573;49.592;8.662;2023-05-10T12:59:56;282.63;;;267.48;;
11039;SDS011;5573;49.592;8.662;2023-05-10T13:02:44;330.42;;;312.67;;
11039;SDS011;5573;49.592;8.662;2023-05-10T13:05:32;309.83;;;293.23;;
11039;SDS011;5573;49.592;8.662;2023-05-10T13:08:20;321.70;;;304.42;;
11039;SDS011;5573;49.592;8.662;2023-05-10T13:11:10;303.58;;;287.08;;
11039;SDS011;5573;49.592;8.662;2023-05-10T13:13:58;301.35;;;285.02;;
11039;SDS011;5573;49.592;8.662;2023-05-10T13:16:47;311.48;;;294.60;;
11039;SDS011;5573;49.592;8.662;2023-05-10T13:19:35;312.75;;;295.92;;
11039;SDS011;5573;49.592;8.662;2023-05-10T13:22:22;271.88;;;257.35;;
11039;SDS011;5573;49.592;8.662;2023-05-10T13:25:25;243.80;;;230.82;;
11039;SDS011;5573;49.592;8.662;2023-05-10T13:28:14;263.27;;;249.40;;
11039;SDS011;5573;49.592;8.662;2023-05-10T13:31:02;271.65;;;257.55;;
11039;SDS011;5573;49.592;8.662;2023-05-10T13:33:50;256.42;;;242.57;;
11039;SDS011;5573;49.592;8.662;2023-05-10T13:36:38;251.75;;;238.00;;
11039;SDS011;5573;49.592;8.662;2023-05-10T13:39:26;235.68;;;223.07;;
11039;SDS011;5573;49.592;8.662;2023-05-10T13:42:17;239.18;;;226.27;;
11039;SDS011;5573;49.592;8.662;2023-05-10T13:45:07;258.98;;;245.02;;
11039;SDS011;5573;49.592;8.662;2023-05-10T13:47:56;269.15;;;254.73;;
11039;SDS011;5573;49.592;8.662;2023-05-10T13:50:44;257.17;;;243.50;;
11039;SDS011;5573;49.592;8.662;2023-05-10T13:53:32;260.73;;;246.98;;
11039;SDS011;5573;49.592;8.662;2023-05-10T13:56:20;260.38;;;246.57;;
11039;SDS011;5573;49.592;8.662;2023-05-10T13:59:08;265.92;;;251.55;;
11039;SDS011;5573;49.592;8.662;2023-05-10T14:01:58;261.45;;;247.55;;
11039;SDS011;5573;49.592;8.662;2023-05-10T14:04:46;252.52;;;239.35;;
11039;SDS011;5573;49.592;8.662;2023-05-10T14:07:34;256.95;;;243.10;;
11039;SDS011;5573;49.592;8.662;2023-05-10T14:10:22;246.50;;;233.45;;
11039;SDS011;5573;49.592;8.662;2023-05-10T14:13:10;257.80;;;243.82;;
11039;SDS011;5573;49.592;8.662;2023-05-10T14:15:58;244.35;;;231.48;;
11039;SDS011;5573;49.592;8.662;2023-05-10T14:18:49;256.20;;;242.48;;
11039;SDS011;5573;49.592;8.662;2023-05-10T14:21:37;247.85;;;234.73;;
11039;SDS011;5573;49.592;8.662;2023-05-10T14:24:25;241.55;;;228.73;;
11039;SDS011;5573;49.592;8.662;2023-05-10T14:27:13;240.35;;;227.73;;
11039;SDS011;5573;49.592;8.662;2023-05-10T14:30:01;237.43;;;224.50;;
11039;SDS011;5573;49.592;8.662;2023-05-10T14:32:50;244.55;;;231.57;;
11039;SDS011;5573;49.592;8.662;2023-05-10T14:35:41;233.65;;;221.18;;
11039;SDS011;5573;49.592;8.662;2023-05-10T14:38:29;234.68;;;222.32;;
11039;SDS011;5573;49.592;8.662;2023-05-10T14:41:17;240.10;;;227.35;;
11039;SDS011;5573;49.592;8.662;2023-05-10T14:44:06;217.70;;;206.25;;
11039;SDS011;5573;49.592;8.662;2023-05-10T14:46:54;237.93;;;225.40;;
11039;SDS011;5573;49.592;8.662;2023-05-10T14:49:42;250.02;;;236.82;;
11039;SDS011;5573;49.592;8.662;2023-05-10T14:52:31;251.00;;;237.63;;
11039;SDS011;5573;49.592;8.662;2023-05-10T14:55:20;234.02;;;221.55;;
11039;SDS011;5573;49.592;8.662;2023-05-10T14:58:08;254.90;;;241.43;;
11039;SDS011;5573;49.592;8.662;2023-05-10T15:00:56;218.10;;;206.63;;
11039;SDS011;5573;49.592;8.662;2023-05-10T15:03:44;242.10;;;229.63;;
11039;SDS011;5573;49.592;8.662;2023-05-10T15:06:33;238.18;;;225.57;;
11039;SDS011;5573;49.592;8.662;2023-05-10T15:09:23;231.07;;;218.75;;
11039;SDS011;5573;49.592;8.662;2023-05-10T15:12:11;220.75;;;208.98;;
11039;SDS011;5573;49.592;8.662;2023-05-10T15:15:00;206.95;;;195.95;;
11039;SDS011;5573;49.592;8.662;2023-05-10T15:17:48;197.00;;;186.50;;
11039;SDS011;5573;49.592;8.662;2023-05-10T15:20:37;218.77;;;207.15;;
11039;SDS011;5573;49.592;8.662;2023-05-10T15:23:24;206.68;;;195.70;;
11039;SDS011;5573;49.592;8.662;2023-05-10T15:26:14;204.40;;;193.38;;
11039;SDS011;5573;49.592;8.662;2023-05-10T15:29:02;189.98;;;179.75;;
11039;SDS011;5573;49.592;8.662;2023-05-10T15:31:50;176.07;;;166.68;;
11039;SDS011;5573;49.592;8.662;2023-05-10T15:34:39;181.25;;;171.60;;
11039;SDS011;5573;49.592;8.662;2023-05-10T15:37:27;185.40;;;175.43;;
11039;SDS011;5573;49.592;8.662;2023-05-10T15:40:15;176.07;;;166.57;;
11039;SDS011;5573;49.592;8.662;2023-05-10T15:43:05;178.52;;;168.85;;
11039;SDS011;5573;49.592;8.662;2023-05-10T15:45:53;185.80;;;175.73;;
11039;SDS011;5573;49.592;8.662;2023-05-10T15:48:41;177.98;;;168.27;;
11039;SDS011;5573;49.592;8.662;2023-05-10T15:51:29;188.93;;;178.82;;
11039;SDS011;5573;49.592;8.662;2023-05-10T15:54:22;184.32;;;174.45;;
11039;SDS011;5573;49.592;8.662;2023-05-10T15:57:10;190.50;;;180.35;;
11039;SDS011;5573;49.592;8.662;2023-05-10T15:59:59;178.95;;;169.40;;
11039;SDS011;5573;49.592;8.662;2023-05-10T16:02:57;181.85;;;171.95;;
11039;SDS011;5573;49.592;8.662;2023-05-10T16:05:45;177.25;;;167.77;;
11039;SDS011;5573;49.592;8.662;2023-05-10T16:08:34;174.13;;;164.60;;
11039;SDS011;5573;49.592;8.662;2023-05-10T16:11:22;184.38;;;174.18;;
11039;SDS011;5573;49.592;8.662;2023-05-10T16:14:10;180.77;;;170.88;;
11039;SDS011;5573;49.592;8.662;2023-05-10T16:16:59;182.30;;;172.63;;
11039;SDS011;5573;49.592;8.662;2023-05-10T16:19:48;164.35;;;155.23;;
11039;SDS011;5573;49.592;8.662;2023-05-10T16:22:36;158.88;;;150.20;;
11039;SDS011;5573;49.592;8.662;2023-05-10T16:25:24;173.95;;;164.55;;